Terminal Aerodrome Forecast
Issued by NWS

Home | Current Version | Previous Version | Text Only | Print | Product List | Glossary On
Versions: 1 2 3 4 5 6 7 8 9 10 11 12 13
126
FTUS42 TJSJ 131749
TAFJBQ
TAF
TJBQ 131749Z 1318/1418 07011G20KT P6SM VCSH SCT025 SCT035 SCT050
     FM132300 VRB05KT P6SM FEW025 FEW035
     FM141300 07011KT P6SM SCT030 SCT040=

USA.gov is the U.S. government's official web portal to all federal, state and local government web resources and services.